createdAt,value
2023-01-25T00:01:47.919Z,0.80
2023-01-25T00:04:15.905Z,0.80
2023-01-25T00:06:43.842Z,0.80
2023-01-25T00:09:11.837Z,0.80
2023-01-25T00:11:39.801Z,0.80
2023-01-25T00:14:10.794Z,0.80
2023-01-25T00:16:39.342Z,0.80
2023-01-25T00:19:08.738Z,0.80
2023-01-25T00:21:37.386Z,0.80
2023-01-25T00:24:05.843Z,0.80
2023-01-25T00:26:34.372Z,0.90
2023-01-25T00:29:03.282Z,0.80
2023-01-25T00:31:46.527Z,0.80
2023-01-25T00:34:46.203Z,0.80
2023-01-25T00:37:20.764Z,0.80
2023-01-25T00:39:48.923Z,0.80
2023-01-25T00:42:19.503Z,0.80
2023-01-25T00:44:47.605Z,0.80
2023-01-25T00:47:17.492Z,0.80
2023-01-25T00:49:46.117Z,0.80
2023-01-25T00:52:14.621Z,0.80
2023-01-25T00:54:42.880Z,0.80
2023-01-25T00:57:11.008Z,0.80
2023-01-25T00:59:38.985Z,0.80
2023-01-25T01:02:06.938Z,0.80
2023-01-25T01:04:36.244Z,0.80
2023-01-25T01:07:04.214Z,0.80
2023-01-25T01:09:32.169Z,0.80
2023-01-25T01:12:00.200Z,0.80
2023-01-25T01:14:28.246Z,0.80
2023-01-25T01:16:58.013Z,0.70
2023-01-25T01:19:26.292Z,0.80
2023-01-25T01:21:55.551Z,0.70
2023-01-25T01:24:23.584Z,0.80
2023-01-25T01:26:51.640Z,0.80
2023-01-25T01:29:19.570Z,0.80
2023-01-25T01:31:47.623Z,0.80
2023-01-25T01:34:15.754Z,0.80
2023-01-25T01:36:43.748Z,0.80
2023-01-25T01:39:13.073Z,0.80
2023-01-25T01:41:41.059Z,0.80
2023-01-25T01:44:16.731Z,0.80
2023-01-25T01:46:50.520Z,0.80
2023-01-25T01:49:22.293Z,0.80
2023-01-25T01:51:53.734Z,0.70
2023-01-25T01:54:28.329Z,0.70
2023-01-25T01:56:59.910Z,0.70
2023-01-25T01:59:32.107Z,0.70
2023-01-25T02:02:00.048Z,0.70
2023-01-25T02:04:29.515Z,0.70
2023-01-25T02:07:01.113Z,0.70
2023-01-25T02:09:33.203Z,0.70
2023-01-25T02:12:01.820Z,0.70
2023-01-25T02:14:30.699Z,0.70
2023-01-25T02:16:59.139Z,0.70
2023-01-25T02:19:39.303Z,0.70
2023-01-25T02:22:13.457Z,0.60
2023-01-25T02:24:49.706Z,0.60
2023-01-25T02:27:19.935Z,0.60
2023-01-25T02:29:48.710Z,0.60
2023-01-25T02:32:16.697Z,0.60
2023-01-25T02:34:44.672Z,0.60
2023-01-25T02:37:15.724Z,0.50
2023-01-25T02:39:44.132Z,0.50
2023-01-25T02:42:12.402Z,0.50
2023-01-25T02:44:43.309Z,0.50
2023-01-25T02:47:11.351Z,0.50
2023-01-25T02:49:39.610Z,0.50
2023-01-25T02:52:07.562Z,0.50
2023-01-25T02:54:35.630Z,0.50
2023-01-25T02:57:03.599Z,0.50
2023-01-25T02:59:31.554Z,0.50
2023-01-25T03:02:00.875Z,0.50
2023-01-25T03:04:28.802Z,0.50
2023-01-25T03:06:56.721Z,0.50
2023-01-25T03:09:24.759Z,0.50
2023-01-25T03:11:52.684Z,0.50
2023-01-25T03:14:20.606Z,0.60
2023-01-25T03:16:48.583Z,0.60
2023-01-25T03:19:18.132Z,0.60
2023-01-25T03:21:46.757Z,0.60
2023-01-25T03:24:14.721Z,0.60
2023-01-25T03:26:57.733Z,0.70
2023-01-25T03:29:25.815Z,0.70
2023-01-25T03:31:53.816Z,0.70
2023-01-25T03:34:23.358Z,0.70
2023-01-25T03:36:51.301Z,0.70
2023-01-25T03:39:19.351Z,0.70
2023-01-25T03:41:47.264Z,0.60
2023-01-25T03:44:15.471Z,0.60
2023-01-25T03:46:43.767Z,0.60
2023-01-25T03:49:12.007Z,0.60
2023-01-25T03:51:41.521Z,0.50
2023-01-25T03:54:10.378Z,0.50
2023-01-25T03:56:38.787Z,0.50
2023-01-25T03:59:07.241Z,0.50
2023-01-25T04:01:35.186Z,0.50
2023-01-25T04:04:03.211Z,0.50
2023-01-25T04:06:31.224Z,0.50
2023-01-25T04:09:00.506Z,0.50
2023-01-25T04:11:28.505Z,0.50
2023-01-25T04:13:56.704Z,0.50
2023-01-25T04:16:24.735Z,0.50
2023-01-25T04:18:52.729Z,0.50
2023-01-25T04:21:21.110Z,0.50
2023-01-25T04:23:49.088Z,0.50
2023-01-25T04:26:18.386Z,0.50
2023-01-25T04:28:46.319Z,0.40
2023-01-25T04:31:14.338Z,0.40
2023-01-25T04:33:42.330Z,0.40
2023-01-25T04:36:10.529Z,0.40
2023-01-25T04:38:38.504Z,0.40
2023-01-25T04:41:06.960Z,0.40
2023-01-25T04:43:36.371Z,0.40
2023-01-25T04:46:04.686Z,0.30
2023-01-25T04:48:33.630Z,0.30
2023-01-25T04:51:01.738Z,0.30
2023-01-25T04:53:29.657Z,0.30
2023-01-25T04:55:57.598Z,0.40
2023-01-25T04:58:25.521Z,0.40
2023-01-25T05:00:55.116Z,0.40
2023-01-25T05:03:23.082Z,0.40
2023-01-25T05:05:51.008Z,0.40
2023-01-25T05:08:18.957Z,0.40
2023-01-25T05:10:47.080Z,0.30
2023-01-25T05:13:15.026Z,0.30
2023-01-25T05:15:42.980Z,0.30
2023-01-25T05:18:12.205Z,0.30
2023-01-25T05:20:40.384Z,0.30
2023-01-25T05:23:08.323Z,0.30
2023-01-25T05:25:53.849Z,0.30
2023-01-25T05:28:21.772Z,0.30
2023-01-25T05:30:49.936Z,0.30
2023-01-25T05:33:19.290Z,0.30
2023-01-25T05:35:47.483Z,0.30
2023-01-25T05:38:15.456Z,0.30
2023-01-25T05:40:43.415Z,0.30
2023-01-25T05:43:11.329Z,0.30
2023-01-25T05:45:40.313Z,0.30
2023-01-25T05:48:08.941Z,0.30
2023-01-25T05:50:38.276Z,0.30
2023-01-25T05:53:06.273Z,0.30
2023-01-25T05:55:36.870Z,0.30
2023-01-25T05:58:04.828Z,0.30
2023-01-25T06:00:33.030Z,0.40
2023-01-25T06:03:02.376Z,0.30
2023-01-25T06:05:30.557Z,0.40
2023-01-25T06:08:01.007Z,0.40
2023-01-25T06:10:28.947Z,0.40
2023-01-25T06:13:00.715Z,0.40
2023-01-25T06:15:28.710Z,0.40
2023-01-25T06:17:57.532Z,0.40
2023-01-25T06:20:25.518Z,0.40
2023-01-25T06:22:53.887Z,0.30
2023-01-25T06:25:23.260Z,0.30
2023-01-25T06:27:51.192Z,0.40
2023-01-25T06:30:19.451Z,0.40
2023-01-25T06:32:47.471Z,0.40
2023-01-25T06:35:15.529Z,0.30
2023-01-25T06:37:43.512Z,0.30
2023-01-25T06:40:12.620Z,0.30
2023-01-25T06:42:41.883Z,0.30
2023-01-25T06:45:12.014Z,0.30
2023-01-25T06:47:40.286Z,0.30
2023-01-25T06:50:09.435Z,0.40
2023-01-25T06:52:37.815Z,0.30
2023-01-25T06:55:07.895Z,0.30
2023-01-25T06:57:36.055Z,0.30
2023-01-25T07:00:06.547Z,0.20
2023-01-25T07:02:34.511Z,0.20
2023-01-25T07:05:02.786Z,0.20
2023-01-25T07:07:31.003Z,0.20
2023-01-25T07:10:00.475Z,0.20
2023-01-25T07:12:30.027Z,0.20
2023-01-25T07:14:57.961Z,0.20
2023-01-25T07:17:27.250Z,0.20
2023-01-25T07:19:55.164Z,0.20
2023-01-25T07:22:23.194Z,0.20
2023-01-25T07:24:54.055Z,0.20
2023-01-25T07:27:22.212Z,0.20
2023-01-25T07:29:50.152Z,0.20
2023-01-25T07:32:18.081Z,0.20
2023-01-25T07:34:47.344Z,0.20
2023-01-25T07:37:15.272Z,0.20
2023-01-25T07:39:48.235Z,0.20
2023-01-25T07:42:16.525Z,0.30
2023-01-25T07:44:44.441Z,0.30
2023-01-25T07:47:12.394Z,0.30
2023-01-25T07:49:40.337Z,0.30
2023-01-25T07:52:09.629Z,0.30
2023-01-25T07:54:37.565Z,0.30
2023-01-25T07:57:05.526Z,0.30
2023-01-25T07:59:33.710Z,0.20
2023-01-25T08:02:01.701Z,0.20
2023-01-25T08:04:29.874Z,0.20
2023-01-25T08:06:57.917Z,0.20
2023-01-25T08:09:28.344Z,0.30
2023-01-25T08:11:56.414Z,0.30
2023-01-25T08:14:24.750Z,0.30
2023-01-25T08:16:53.095Z,0.30
2023-01-25T08:19:22.009Z,0.30
2023-01-25T08:21:50.055Z,0.30
2023-01-25T08:24:19.168Z,0.40
2023-01-25T08:26:49.987Z,0.30
2023-01-25T08:29:18.177Z,0.40
2023-01-25T08:31:46.129Z,0.30
2023-01-25T08:34:14.995Z,0.40
2023-01-25T08:36:42.957Z,0.40
2023-01-25T08:39:13.098Z,0.40
2023-01-25T08:41:42.240Z,0.40
2023-01-25T08:44:11.830Z,0.40
2023-01-25T08:46:39.821Z,0.40
2023-01-25T08:49:09.193Z,0.50
2023-01-25T08:51:37.187Z,0.50
2023-01-25T08:54:05.818Z,0.50
2023-01-25T08:56:33.927Z,0.50
2023-01-25T08:59:01.894Z,0.50
2023-01-25T09:01:31.172Z,0.50
2023-01-25T09:03:59.324Z,0.50
2023-01-25T09:06:27.398Z,0.50
2023-01-25T09:08:55.313Z,0.50
2023-01-25T09:11:24.327Z,0.50
2023-01-25T09:13:52.421Z,0.50
2023-01-25T09:16:28.077Z,0.70
2023-01-25T09:18:59.031Z,0.50
2023-01-25T09:21:27.374Z,0.50
2023-01-25T09:24:11.274Z,0.50
2023-01-25T09:26:42.978Z,0.50
2023-01-25T09:29:13.161Z,0.50
2023-01-25T09:31:43.683Z,0.50
2023-01-25T09:34:14.830Z,0.50
2023-01-25T09:36:42.784Z,0.50
2023-01-25T09:39:13.057Z,0.50
2023-01-25T09:42:14.595Z,0.50
2023-01-25T09:45:07.099Z,0.50
2023-01-25T09:47:42.079Z,0.50
2023-01-25T09:50:25.041Z,0.60
2023-01-25T09:53:17.528Z,0.60
2023-01-25T09:55:50.856Z,0.60
2023-01-25T09:58:22.321Z,0.60
2023-01-25T10:00:54.791Z,0.60
2023-01-25T10:03:27.025Z,0.60
2023-01-25T10:06:01.020Z,0.60
2023-01-25T10:08:33.079Z,0.50
2023-01-25T10:11:07.801Z,0.50
2023-01-25T10:13:35.755Z,0.50
2023-01-25T10:16:14.586Z,0.40
2023-01-25T10:18:56.661Z,0.50
2023-01-25T10:21:31.356Z,0.50
2023-01-25T10:24:21.188Z,0.50
2023-01-25T10:26:56.728Z,0.50
2023-01-25T10:29:29.004Z,0.40
2023-01-25T10:32:03.335Z,0.50
2023-01-25T10:34:44.039Z,0.50
2023-01-25T10:37:26.723Z,0.50
2023-01-25T10:40:00.246Z,0.60
2023-01-25T10:42:30.681Z,0.60
2023-01-25T10:44:58.620Z,0.60
2023-01-25T10:47:29.969Z,0.60
2023-01-25T10:49:59.157Z,0.60
2023-01-25T10:52:30.253Z,0.60
2023-01-25T10:55:16.090Z,0.60
2023-01-25T10:57:45.305Z,0.60
2023-01-25T11:00:29.949Z,0.60
2023-01-25T11:02:58.481Z,0.60
2023-01-25T11:05:29.067Z,0.60
2023-01-25T11:07:58.618Z,0.60
2023-01-25T11:10:32.526Z,0.60
2023-01-25T11:13:22.990Z,0.60
2023-01-25T11:15:52.968Z,0.60
2023-01-25T11:18:24.364Z,0.70
2023-01-25T11:21:07.359Z,0.60
2023-01-25T11:23:36.746Z,0.70
2023-01-25T11:26:19.099Z,0.60
2023-01-25T11:28:49.533Z,0.60
2023-01-25T11:31:22.352Z,0.60
2023-01-25T11:33:50.527Z,0.60
2023-01-25T11:36:25.782Z,0.60
2023-01-25T11:39:18.724Z,0.60
2023-01-25T11:41:56.767Z,0.60
2023-01-25T11:44:57.764Z,0.60
2023-01-25T11:47:40.780Z,0.70
2023-01-25T11:50:16.033Z,0.60
2023-01-25T11:53:07.766Z,0.70
2023-01-25T11:55:44.742Z,0.70
2023-01-25T11:58:32.333Z,0.70
2023-01-25T12:01:11.751Z,0.70
2023-01-25T12:04:06.876Z,0.70
2023-01-25T12:06:45.959Z,0.70
2023-01-25T12:09:26.693Z,0.70
2023-01-25T12:12:08.715Z,0.70
2023-01-25T12:14:50.356Z,0.60
2023-01-25T12:17:33.496Z,0.60
2023-01-25T12:20:32.060Z,0.60
2023-01-25T12:23:16.808Z,0.60
2023-01-25T12:25:55.544Z,0.70
2023-01-25T12:28:30.296Z,0.70
2023-01-25T12:31:03.822Z,0.70
2023-01-25T12:33:37.319Z,0.70
2023-01-25T12:36:12.621Z,0.70
2023-01-25T12:38:45.703Z,0.70
2023-01-25T12:41:24.264Z,0.70
2023-01-25T12:43:58.441Z,0.70
2023-01-25T12:46:31.031Z,0.70
2023-01-25T12:49:04.295Z,0.70
2023-01-25T12:51:38.106Z,0.70
2023-01-25T12:54:15.564Z,0.70
2023-01-25T12:56:48.080Z,0.70
2023-01-25T12:59:25.096Z,0.70
2023-01-25T13:01:56.921Z,0.70
2023-01-25T13:04:41.340Z,0.70
2023-01-25T13:07:17.175Z,0.80
2023-01-25T13:09:54.345Z,0.80
2023-01-25T13:12:22.301Z,0.90
2023-01-25T13:14:51.687Z,0.80
2023-01-25T13:17:30.593Z,0.80
2023-01-25T13:19:58.662Z,0.80
2023-01-25T13:22:58.652Z,0.80
2023-01-25T13:25:27.710Z,0.80
2023-01-25T13:28:42.258Z,0.70
2023-01-25T13:31:11.927Z,0.70
2023-01-25T13:33:39.931Z,0.70
2023-01-25T13:36:38.677Z,0.60
2023-01-25T13:39:40.228Z,0.60
2023-01-25T13:42:22.725Z,0.60
2023-01-25T13:44:52.226Z,0.60
2023-01-25T13:47:24.258Z,0.60
2023-01-25T13:49:57.845Z,0.60
2023-01-25T13:52:27.299Z,0.60
2023-01-25T13:54:57.605Z,0.60
2023-01-25T13:57:27.871Z,0.50
2023-01-25T14:00:11.253Z,0.50
2023-01-25T14:02:43.051Z,0.50
2023-01-25T14:05:20.517Z,0.50
2023-01-25T14:07:50.648Z,0.50
2023-01-25T14:10:23.640Z,0.50
2023-01-25T14:12:53.181Z,0.50
2023-01-25T14:15:24.378Z,0.60
2023-01-25T14:18:13.129Z,0.60
2023-01-25T14:20:41.596Z,0.60
2023-01-25T14:23:22.914Z,0.60
2023-01-25T14:25:51.574Z,0.60
2023-01-25T14:28:20.159Z,0.50
2023-01-25T14:30:54.663Z,0.50
2023-01-25T14:33:27.311Z,0.50
2023-01-25T14:36:01.739Z,0.50
2023-01-25T14:38:36.331Z,0.50
2023-01-25T14:41:12.121Z,0.40
2023-01-25T14:43:43.156Z,0.40
2023-01-25T14:46:25.745Z,0.40
2023-01-25T14:49:15.986Z,0.40
2023-01-25T14:51:46.218Z,0.40
2023-01-25T14:54:18.865Z,0.40
2023-01-25T14:56:48.950Z,0.40
2023-01-25T14:59:28.244Z,0.40
2023-01-25T15:01:59.171Z,0.40
2023-01-25T15:04:28.835Z,0.40
2023-01-25T15:07:01.097Z,0.40
2023-01-25T15:09:36.875Z,0.40
2023-01-25T15:12:06.799Z,0.40
2023-01-25T15:14:34.768Z,0.40
2023-01-25T15:17:02.704Z,0.50
2023-01-25T15:19:34.636Z,0.40
2023-01-25T15:22:03.002Z,0.40
2023-01-25T15:24:30.936Z,0.40
2023-01-25T15:26:58.945Z,0.40
2023-01-25T15:29:27.669Z,0.40
2023-01-25T15:31:57.022Z,0.40
2023-01-25T15:34:32.453Z,0.40
2023-01-25T15:37:01.773Z,0.40
2023-01-25T15:39:30.011Z,0.40
2023-01-25T15:41:57.907Z,0.40
2023-01-25T15:44:25.935Z,0.50
2023-01-25T15:46:54.502Z,0.40
2023-01-25T15:49:26.752Z,0.40
2023-01-25T15:51:54.957Z,0.40
2023-01-25T15:54:24.556Z,0.40
2023-01-25T15:56:56.057Z,0.40
2023-01-25T15:59:24.241Z,0.40
2023-01-25T16:01:52.458Z,0.50
2023-01-25T16:04:20.370Z,0.40
2023-01-25T16:06:50.536Z,0.40
2023-01-25T16:09:21.686Z,0.40
2023-01-25T16:11:53.878Z,0.40
2023-01-25T16:14:23.606Z,0.40
2023-01-25T16:16:53.180Z,0.40
2023-01-25T16:19:22.998Z,0.40
2023-01-25T16:21:51.633Z,0.40
2023-01-25T16:24:19.994Z,0.40
2023-01-25T16:26:52.441Z,0.40
2023-01-25T16:29:20.588Z,0.40
2023-01-25T16:31:48.637Z,0.40
2023-01-25T16:34:16.594Z,0.40
2023-01-25T16:36:49.979Z,0.40
2023-01-25T16:39:20.506Z,0.40
2023-01-25T16:41:49.327Z,0.40
2023-01-25T16:44:18.993Z,0.40
2023-01-25T16:46:47.515Z,0.30
2023-01-25T16:49:18.442Z,0.30
2023-01-25T16:51:46.461Z,0.30
2023-01-25T16:54:14.407Z,0.30
2023-01-25T16:56:42.431Z,0.30
2023-01-25T16:59:12.157Z,0.30
2023-01-25T17:01:42.019Z,0.30
2023-01-25T17:04:10.502Z,0.30
2023-01-25T17:06:40.784Z,0.30
2023-01-25T17:09:22.134Z,0.30
2023-01-25T17:11:51.265Z,0.20
2023-01-25T17:14:20.520Z,0.20
2023-01-25T17:16:52.239Z,0.20
2023-01-25T17:19:21.319Z,0.20
2023-01-25T17:21:49.331Z,0.20
2023-01-25T17:24:19.609Z,0.30
2023-01-25T17:26:47.902Z,0.30
2023-01-25T17:29:15.850Z,0.30
2023-01-25T17:31:44.703Z,0.30
2023-01-25T17:34:16.418Z,0.40
2023-01-25T17:36:44.726Z,0.40
2023-01-25T17:39:15.352Z,0.40
2023-01-25T17:41:43.331Z,0.40
2023-01-25T17:44:11.613Z,0.40
2023-01-25T17:46:39.575Z,0.40
2023-01-25T17:49:09.324Z,0.40
2023-01-25T17:51:38.785Z,0.40
2023-01-25T17:54:07.341Z,0.40
2023-01-25T17:56:37.353Z,0.40
2023-01-25T17:59:09.022Z,0.40
2023-01-25T18:01:37.599Z,0.40
2023-01-25T18:04:08.864Z,0.40
2023-01-25T18:06:38.189Z,0.40
2023-01-25T18:09:07.217Z,0.40
2023-01-25T18:11:36.886Z,0.40
2023-01-25T18:14:09.004Z,0.40
2023-01-25T18:16:39.808Z,0.40
2023-01-25T18:19:08.462Z,0.40
2023-01-25T18:21:38.053Z,0.40
2023-01-25T18:24:08.600Z,0.50
2023-01-25T18:26:37.970Z,0.50
2023-01-25T18:29:35.031Z,0.50
2023-01-25T18:32:03.146Z,0.50
2023-01-25T18:34:31.126Z,0.50
2023-01-25T18:37:00.403Z,0.50
2023-01-25T18:39:28.489Z,0.50
2023-01-25T18:41:56.449Z,0.40
2023-01-25T18:44:24.575Z,0.50
2023-01-25T18:46:52.512Z,0.50
2023-01-25T18:49:20.421Z,0.50
2023-01-25T18:52:05.199Z,0.50
2023-01-25T18:54:37.725Z,0.50
2023-01-25T18:57:06.862Z,0.50
2023-01-25T18:59:34.855Z,0.50
2023-01-25T19:02:02.866Z,0.50
2023-01-25T19:04:30.910Z,0.50
2023-01-25T19:07:01.436Z,0.60
2023-01-25T19:09:30.191Z,0.60
2023-01-25T19:11:59.681Z,0.60
2023-01-25T19:14:27.822Z,0.60
2023-01-25T19:16:55.800Z,0.50
2023-01-25T19:19:24.947Z,0.50
2023-01-25T19:21:52.891Z,0.50
2023-01-25T19:24:20.904Z,0.50
2023-01-25T19:26:49.036Z,0.50
2023-01-25T19:29:18.479Z,0.50
2023-01-25T19:31:46.422Z,0.50
2023-01-25T19:34:14.405Z,0.50
2023-01-25T19:36:45.767Z,0.50
2023-01-25T19:39:14.472Z,0.50
2023-01-25T19:41:42.594Z,0.50
2023-01-25T19:44:12.737Z,0.50
2023-01-25T19:46:42.200Z,0.40
2023-01-25T19:49:13.170Z,0.40
2023-01-25T19:51:44.506Z,0.40
2023-01-25T19:54:15.809Z,0.40
2023-01-25T19:56:46.001Z,0.50
2023-01-25T19:59:15.676Z,0.50
2023-01-25T20:01:46.260Z,0.50
2023-01-25T20:04:16.604Z,0.60
2023-01-25T20:06:44.970Z,0.60
2023-01-25T20:09:14.140Z,0.60
2023-01-25T20:11:42.820Z,0.60
2023-01-25T20:14:12.817Z,0.60
2023-01-25T20:16:40.934Z,0.70
2023-01-25T20:19:12.334Z,0.70
2023-01-25T20:21:40.905Z,0.70
2023-01-25T20:24:10.493Z,0.70
2023-01-25T20:26:42.663Z,0.70
2023-01-25T20:29:12.224Z,0.70
2023-01-25T20:31:41.572Z,0.70
2023-01-25T20:34:14.396Z,0.70
2023-01-25T20:36:43.179Z,0.70
2023-01-25T20:39:13.637Z,0.70
2023-01-25T20:41:41.593Z,0.70
2023-01-25T20:44:11.346Z,0.70
2023-01-25T20:46:40.726Z,0.70
2023-01-25T20:49:12.176Z,0.70
2023-01-25T20:51:40.251Z,0.70
2023-01-25T20:54:08.228Z,0.70
2023-01-25T20:56:36.463Z,0.70
2023-01-25T20:59:04.900Z,0.70
2023-01-25T21:01:36.945Z,0.70
2023-01-25T21:04:07.893Z,0.70
2023-01-25T21:06:38.601Z,0.70
2023-01-25T21:09:06.892Z,0.60
2023-01-25T21:11:34.912Z,0.60
2023-01-25T21:14:02.986Z,0.60
2023-01-25T21:16:31.238Z,0.60
2023-01-25T21:19:01.378Z,0.70
2023-01-25T21:21:31.190Z,0.70
2023-01-25T21:24:04.784Z,0.70
2023-01-25T21:26:34.579Z,0.70
2023-01-25T21:29:03.263Z,0.70
2023-01-25T21:31:33.462Z,0.50
2023-01-25T21:34:02.041Z,0.60
2023-01-25T21:36:29.989Z,0.60
2023-01-25T21:38:58.127Z,0.60
2023-01-25T21:41:29.443Z,0.60
2023-01-25T21:44:16.527Z,0.60
2023-01-25T21:46:49.255Z,0.60
2023-01-25T21:49:45.794Z,0.60
2023-01-25T21:52:13.735Z,0.60
2023-01-25T21:54:41.654Z,0.60
2023-01-25T21:57:11.711Z,0.60
2023-01-25T21:59:40.849Z,0.70
2023-01-25T22:02:11.786Z,0.70
2023-01-25T22:04:39.806Z,0.70
2023-01-25T22:07:09.176Z,0.70
2023-01-25T22:09:37.165Z,0.70
2023-01-25T22:12:05.356Z,0.70
2023-01-25T22:14:34.844Z,0.70
2023-01-25T22:17:03.266Z,0.60
2023-01-25T22:19:31.206Z,0.70
2023-01-25T22:21:59.240Z,0.70
2023-01-25T22:24:27.295Z,0.70
2023-01-25T22:27:04.519Z,0.70
2023-01-25T22:29:35.112Z,0.70
2023-01-25T22:32:03.169Z,0.70
2023-01-25T22:34:31.284Z,0.70
2023-01-25T22:36:59.251Z,0.70
2023-01-25T22:39:27.230Z,0.80
2023-01-25T22:41:55.846Z,0.80
2023-01-25T22:44:23.753Z,0.80
2023-01-25T22:46:53.834Z,0.80
2023-01-25T22:49:21.904Z,0.80
2023-01-25T22:51:49.978Z,0.70
2023-01-25T22:54:17.964Z,0.70
2023-01-25T22:56:46.054Z,0.70
2023-01-25T22:59:18.755Z,0.70
2023-01-25T23:01:47.081Z,0.70
2023-01-25T23:04:16.441Z,0.70
2023-01-25T23:06:44.614Z,0.70
2023-01-25T23:09:12.710Z,0.70
2023-01-25T23:11:40.614Z,0.70
2023-01-25T23:14:27.653Z,0.70
2023-01-25T23:17:16.783Z,0.70
2023-01-25T23:19:45.121Z,0.70
2023-01-25T23:22:13.830Z,0.70
2023-01-25T23:24:41.847Z,0.70
2023-01-25T23:27:09.748Z,0.70
2023-01-25T23:29:38.188Z,0.70
2023-01-25T23:32:06.589Z,0.70
2023-01-25T23:34:39.417Z,0.70
2023-01-25T23:37:08.865Z,0.70
2023-01-25T23:39:36.850Z,0.70
2023-01-25T23:42:04.846Z,0.70
2023-01-25T23:44:32.844Z,0.70
2023-01-25T23:47:01.689Z,0.70
2023-01-25T23:49:29.659Z,0.70
2023-01-25T23:51:57.636Z,0.70
2023-01-25T23:54:27.095Z,0.70
2023-01-25T23:56:55.097Z,0.70
2023-01-25T23:59:23.211Z,0.70
